Dunning, North Dakota
Current Conditions -  °F | °C
As of 12:58 AM on Sunday 26 Oct 2014 (Local Time) from KMIB Reporting Station
Clear Clear  
Wind Chill: 31°   Ceiling: Unl
Heat Index: 37°   Visibility: 10mi
Dew Point: 31°   Wind: 8mph
Humidity: 80%   Direction: 140°SE
Pressure: 29.84"   Gusts: NA
Location:  48.7978°N, 101.326°W
Report Text: KMIB 260558Z AUTO 14007KT 10SM CLR 03/00 A2984 RMK AO2 SLP117 T00281003 10084 20028 401601009 57021 $
Loading
Personal Weather Stations






























Interactive Weather Map
Tropical Storm Tracking
New forecast layout! Learn more

10-Day Weather Forecast

Advertisements
Track Severe Weather on mobile